Time;durP1;ratioP1;P1;durP2;ratioP2;P2;SDS_P1;SDS_P2;PMS_P1;PMS_P2;Temp;Humidity;BMP_temperature;BMP_pressure;BME280_temperature;BME280_humidity;BME280_pressure;Samples;Min_cycle;Max_cycle;Signal;HPM_P1;HPM_P2
2023/01/18 00:02:32;;;;;;;11.93;7.20;;;-1.40;99.90;;;;;;5023782;28;20497;-90
2023/01/18 00:05:42;;;;;;;12.63;7.60;;;-1.40;99.90;;;;;;4988461;28;20115;-89
2023/01/18 00:08:15;;;;;;;12.18;7.22;;;-1.40;99.90;;;;;;5020267;28;20034;-89
2023/01/18 00:11:00;;;;;;;11.88;6.65;;;-1.40;99.90;;;;;;5019766;28;20069;-89
2023/01/18 00:13:34;;;;;;;11.02;6.97;;;-1.40;99.90;;;;;;5020059;28;20041;-90
2023/01/18 00:16:30;;;;;;;11.00;6.82;;;-1.40;99.90;;;;;;5021149;28;20036;-89
2023/01/18 00:19:32;;;;;;;10.77;6.47;;;-1.40;99.90;;;;;;5019163;28;20069;-90
2023/01/18 00:22:16;;;;;;;11.73;6.75;;;-1.40;99.90;;;;;;5037325;28;20033;-90
2023/01/18 00:25:21;;;;;;;11.82;7.20;;;-1.40;99.90;;;;;;5019832;28;20120;-89
2023/01/18 00:28:10;;;;;;;;;;;;;;;;;;;;;
2023/01/18 00:30:46;;;;;;;11.45;6.88;;;-1.40;99.90;;;;;;5021029;28;20040;-90
2023/01/18 00:36:18;;;;;;;;;;;;;;;;;;;;;
2023/01/18 00:39:01;;;;;;;13.68;7.90;;;-1.40;99.90;;;;;;5042803;28;20112;-89
2023/01/18 00:44:51;;;;;;;9.90;6.65;;;-1.40;99.90;;;;;;4983434;28;20043;-90
2023/01/18 00:47:26;;;;;;;12.35;7.30;;;-1.40;99.90;;;;;;5020379;28;20037;-89
2023/01/18 00:52:57;;;;;;;11.18;7.53;;;-1.40;99.90;;;;;;5018902;28;20477;-91
2023/01/18 00:55:30;;;;;;;9.70;6.60;;;-1.40;99.90;;;;;;5021776;28;20163;-92
2023/01/18 00:58:01;;;;;;;10.95;6.32;;;-1.40;99.90;;;;;;5003598;28;20042;-91
2023/01/18 01:00:37;;;;;;;10.98;7.03;;;-1.40;99.90;;;;;;5036080;28;20030;-91
2023/01/18 01:06:50;;;;;;;11.98;7.70;;;-1.40;99.90;;;;;;5007339;28;20045;-91
2023/01/18 01:09:22;;;;;;;13.02;7.20;;;-1.50;99.90;;;;;;5019246;28;20044;-91
2023/01/18 01:27:16;;;;;;;;;;;;;;;;;;;;;
2023/01/18 01:29:47;;;;;;;11.95;7.40;;;-1.50;99.90;;;;;;5036035;28;20362;-91
2023/01/18 01:32:41;;;;;;;12.57;8.05;;;-1.50;99.90;;;;;;5023490;28;20041;-91
2023/01/18 01:35:20;;;;;;;11.82;7.88;;;-1.60;99.90;;;;;;4996037;28;20124;-90
2023/01/18 01:37:54;;;;;;;11.73;6.78;;;-1.60;99.90;;;;;;5006727;28;20045;-91
2023/01/18 01:40:41;;;;;;;12.77;7.20;;;-1.50;99.90;;;;;;5014778;28;20485;-91
2023/01/18 01:43:17;;;;;;;11.40;7.20;;;-1.60;99.90;;;;;;5003130;28;20038;-90
2023/01/18 01:45:48;;;;;;;12.63;7.15;;;-1.50;99.90;;;;;;5006808;28;20089;-91
2023/01/18 01:48:14;;;;;;;10.68;6.78;;;-1.60;99.90;;;;;;4998744;28;20030;-91
2023/01/18 01:51:02;;;;;;;11.52;7.38;;;-1.60;99.90;;;;;;5014011;28;20619;-90
2023/01/18 01:53:34;;;;;;;13.80;7.38;;;-1.60;99.90;;;;;;5004402;28;20386;-90
2023/01/18 01:56:06;;;;;;;13.00;7.38;;;-1.60;99.90;;;;;;5015293;28;20065;-90
2023/01/18 01:58:35;;;;;;;13.25;8.20;;;-1.60;99.90;;;;;;5015690;28;20034;-90
2023/01/18 02:01:13;;;;;;;13.52;8.73;;;-1.60;99.90;;;;;;4999409;28;20089;-90
2023/01/18 02:07:09;;;;;;;13.60;8.63;;;-1.70;99.90;;;;;;5001245;28;20397;-90
2023/01/18 02:09:45;;;;;;;17.45;9.25;;;-1.70;99.90;;;;;;5014245;28;20033;-91
2023/01/18 02:12:20;;;;;;;13.43;9.07;;;-1.70;99.90;;;;;;4996003;28;20046;-90
2023/01/18 02:14:46;;;;;;;13.20;9.00;;;-1.70;99.90;;;;;;4979322;28;20118;-91
2023/01/18 02:17:29;;;;;;;15.13;9.25;;;-1.70;99.90;;;;;;5009139;28;20026;-90
2023/01/18 02:20:18;;;;;;;10.57;7.57;;;-1.70;99.90;;;;;;5014676;28;20034;-89
2023/01/18 02:22:46;;;;;;;15.02;8.38;;;-1.70;99.90;;;;;;5014335;28;20103;-90
2023/01/18 02:25:34;;;;;;;11.40;7.80;;;-1.70;99.90;;;;;;5015862;28;20030;-90
2023/01/18 02:28:19;;;;;;;12.55;8.70;;;-1.80;99.90;;;;;;5014570;28;20124;-90
2023/01/18 02:30:59;;;;;;;11.30;7.97;;;-1.70;99.90;;;;;;5014571;28;20041;-90
2023/01/18 02:33:52;;;;;;;15.45;9.40;;;-1.80;99.90;;;;;;5016817;28;20037;-89
2023/01/18 02:36:32;;;;;;;12.83;7.37;;;-1.80;99.90;;;;;;5009631;28;20032;-89
2023/01/18 02:39:05;;;;;;;12.52;8.23;;;-1.80;99.90;;;;;;5017846;28;20025;-90
2023/01/18 02:47:32;;;;;;;13.18;8.60;;;-1.80;99.90;;;;;;5037719;28;20092;-90
2023/01/18 02:49:58;;;;;;;11.75;8.13;;;-1.80;99.90;;;;;;5034663;28;20116;-89
2023/01/18 02:52:38;;;;;;;12.43;8.45;;;-1.80;99.90;;;;;;5017195;28;20128;-90
2023/01/18 02:55:17;;;;;;;14.38;8.00;;;-1.80;99.90;;;;;;5016847;28;20104;-90
2023/01/18 02:57:44;;;;;;;12.63;8.02;;;-1.80;99.90;;;;;;5017414;28;20445;-90
2023/01/18 03:00:17;;;;;;;12.10;7.70;;;-1.80;99.90;;;;;;5017036;28;20097;-90
2023/01/18 03:02:56;;;;;;;13.13;8.32;;;-1.90;99.90;;;;;;5016900;28;20029;-89
2023/01/18 03:05:35;;;;;;;14.43;8.38;;;-1.90;99.90;;;;;;5017169;28;20041;-91
2023/01/18 03:08:42;;;;;;;13.75;9.50;;;-1.90;99.90;;;;;;5015872;28;20041;-90
2023/01/18 03:11:44;;;;;;;14.30;9.52;;;-1.90;99.90;;;;;;5004266;28;20057;-91
2023/01/18 03:14:26;;;;;;;14.10;9.25;;;-2.00;99.90;;;;;;5034464;28;20168;-90
2023/01/18 03:16:57;;;;;;;13.43;8.65;;;-1.90;99.90;;;;;;5017166;28;20044;-90
2023/01/18 03:25:48;;;;;;;16.08;8.98;;;-2.00;99.90;;;;;;5037425;28;20453;-89
2023/01/18 03:34:58;;;;;;;11.48;7.57;;;-2.00;99.90;;;;;;5024027;28;20109;-90
2023/01/18 03:37:41;;;;;;;10.50;7.03;;;-2.00;99.90;;;;;;4997282;28;20033;-90
2023/01/18 03:40:19;;;;;;;13.43;8.00;;;-2.00;99.90;;;;;;4997110;28;20175;-89
2023/01/18 03:43:16;;;;;;;12.07;6.60;;;-2.00;99.90;;;;;;4997201;28;20478;-89
2023/01/18 03:45:50;;;;;;;11.10;7.10;;;-2.00;99.90;;;;;;4997044;28;20033;-90
2023/01/18 03:48:28;;;;;;;12.18;7.43;;;-2.00;99.90;;;;;;4996860;28;20034;-90
2023/01/18 03:51:09;;;;;;;13.98;7.65;;;-2.00;99.90;;;;;;4996933;28;20046;-90
2023/01/18 03:54:10;;;;;;;10.73;7.45;;;-1.90;99.90;;;;;;4996926;28;20026;-90
2023/01/18 03:56:51;;;;;;;14.20;7.53;;;-2.00;99.90;;;;;;4996727;28;20202;-90
2023/01/18 03:59:30;;;;;;;12.88;7.85;;;-2.00;99.90;;;;;;4981324;28;20054;-89
2023/01/18 04:01:59;;;;;;;13.55;7.75;;;-2.00;99.90;;;;;;4996912;28;20046;-90
2023/01/18 04:04:27;;;;;;;12.45;7.40;;;-2.00;99.90;;;;;;4980693;28;20137;-90
2023/01/18 04:07:11;;;;;;;10.43;6.93;;;-2.00;99.90;;;;;;4997250;28;20041;-90
2023/01/18 04:09:48;;;;;;;11.45;7.53;;;-2.00;99.90;;;;;;5005301;28;20030;-89
2023/01/18 04:15:23;;;;;;;10.35;7.18;;;-2.00;99.90;;;;;;5000960;28;20501;-91
2023/01/18 04:17:56;;;;;;;9.93;6.95;;;-2.00;99.90;;;;;;5014640;28;20049;-90
2023/01/18 04:20:47;;;;;;;11.38;7.40;;;-2.00;99.90;;;;;;5014234;28;20030;-91
2023/01/18 04:23:36;;;;;;;11.07;7.30;;;-2.10;99.90;;;;;;4996280;28;20116;-90
2023/01/18 04:29:55;;;;;;;;;;;;;;;;;;;;;
2023/01/18 04:35:38;;;;;;;;;;;;;;;;;;;;;
2023/01/18 04:41:35;;;;;;;;;;;;;;;;;;;;;
2023/01/18 04:44:12;;;;;;;15.50;8.90;;;-2.20;99.90;;;;;;5017886;28;20026;-91
2023/01/18 04:46:40;;;;;;;13.60;9.13;;;-2.20;99.90;;;;;;5000548;28;20057;-90
2023/01/18 04:49:17;;;;;;;14.80;9.10;;;-2.20;99.90;;;;;;5001169;28;20109;-90
2023/01/18 04:51:47;;;;;;;16.10;8.95;;;-2.20;99.90;;;;;;5011691;28;20052;-90
2023/01/18 04:54:26;;;;;;;;;;;;;;;;;;;;;
2023/01/18 04:56:57;;;;;;;14.88;8.88;;;-2.20;99.90;;;;;;5002233;28;20034;-90
2023/01/18 04:59:28;;;;;;;12.93;8.38;;;-2.20;99.90;;;;;;5017916;28;20032;-90
2023/01/18 05:01:56;;;;;;;13.27;9.38;;;-2.20;99.90;;;;;;4999802;28;20137;-89
2023/01/18 05:04:58;;;;;;;;;;;;;;;;;;;;;
2023/01/18 05:10:44;;;;;;;12.63;7.47;;;-2.20;99.90;;;;;;4986089;28;20414;-90
2023/01/18 05:13:15;;;;;;;11.20;6.85;;;-2.20;99.90;;;;;;4979465;28;20030;-90
2023/01/18 05:15:53;;;;;;;13.10;8.38;;;-2.20;99.90;;;;;;4979298;28;20037;-89
2023/01/18 05:18:28;;;;;;;14.43;8.88;;;-2.20;99.90;;;;;;4978775;28;20045;-89
2023/01/18 05:20:56;;;;;;;11.38;7.45;;;-2.20;99.90;;;;;;4978981;28;20479;-91
2023/01/18 05:23:26;;;;;;;14.25;7.60;;;-2.20;99.90;;;;;;4978936;28;20395;-89
2023/01/18 05:26:13;;;;;;;;;;;;;;;;;;;;;
2023/01/18 05:29:05;;;;;;;10.25;6.97;;;-2.20;99.90;;;;;;4995810;28;20030;-90
2023/01/18 05:32:01;;;;;;;12.18;7.90;;;-2.20;99.90;;;;;;4981681;28;20042;-89
2023/01/18 05:35:06;;;;;;;13.65;8.05;;;-2.20;99.90;;;;;;5004062;28;20058;-89
2023/01/18 05:38:15;;;;;;;11.63;7.18;;;-2.20;99.90;;;;;;4987569;28;20038;-88
2023/01/18 05:40:56;;;;;;;12.55;7.30;;;-2.20;99.90;;;;;;4994757;28;20494;-89
2023/01/18 05:51:11;;;;;;;12.38;7.30;;;-2.20;99.90;;;;;;4940531;28;20042;-91
2023/01/18 05:54:42;;;;;;;12.27;7.40;;;-2.20;99.90;;;;;;4990302;28;20042;-91
2023/01/18 06:05:03;;;;;;;;;;;;;;;;;;;;;
2023/01/18 06:54:29;;;;;;;;;;;;;;;;;;;;;
2023/01/18 06:58:01;;;;;;;;;;;;;;;;;;;;;
2023/01/18 08:56:52;;;;;;;;;;;;;;;;;;;;;
2023/01/18 09:00:08;;;;;;;;;;;;;;;;;;;;;
2023/01/18 09:02:54;;;;;;;10.65;7.68;;;-1.00;99.90;;;;;;4799238;29;20039;-93
2023/01/18 09:05:34;;;;;;;14.40;8.63;;;-1.00;99.90;;;;;;4802222;29;20130;-95
2023/01/18 09:12:17;;;;;;;;;;;;;;;;;;;;;
2023/01/18 09:30:14;;;;;;;11.20;7.90;;;6.30;99.90;;;;;;4848057;29;20582;-95
2023/01/18 09:33:47;;;;;;;;;;;;;;;;;;;;;
2023/01/18 09:56:33;;;;;;;10.10;6.30;;;11.00;99.90;;;;;;5035835;28;20052;-90
2023/01/18 09:59:32;;;;;;;7.22;4.65;;;11.20;99.90;;;;;;5035796;28;20092;-90
2023/01/18 10:02:31;;;;;;;8.38;5.68;;;11.20;99.90;;;;;;4995832;28;20046;-90
2023/01/18 10:05:32;;;;;;;8.68;6.00;;;10.60;99.90;;;;;;5036028;28;20040;-90
2023/01/18 10:08:54;;;;;;;9.73;6.07;;;10.20;99.90;;;;;;4998024;28;20046;-90
2023/01/18 10:11:47;;;;;;;7.60;5.60;;;9.70;99.90;;;;;;4946664;28;20126;-92
2023/01/18 10:21:17;;;;;;;8.70;6.18;;;11.20;99.90;;;;;;4974292;28;20097;-90
2023/01/18 10:24:23;;;;;;;10.32;5.60;;;11.50;99.90;;;;;;4958447;28;20031;-90
2023/01/18 10:30:55;;;;;;;7.45;5.53;;;12.00;99.90;;;;;;4997867;28;20041;-92
2023/01/18 10:33:57;;;;;;;8.65;5.55;;;12.40;99.90;;;;;;5017175;28;20100;-90
2023/01/18 10:40:09;;;;;;;10.38;5.85;;;12.80;99.90;;;;;;5031936;28;20075;-90
2023/01/18 10:43:00;;;;;;;10.37;6.03;;;12.80;99.90;;;;;;5004244;28;20040;-90
2023/01/18 10:45:43;;;;;;;10.18;6.38;;;12.80;99.90;;;;;;5015821;28;20044;-90
2023/01/18 10:48:31;;;;;;;7.40;5.23;;;12.80;99.90;;;;;;5007176;28;20195;-90
2023/01/18 10:51:05;;;;;;;9.43;5.63;;;13.00;99.90;;;;;;5032139;28;20276;-92
2023/01/18 10:53:37;;;;;;;8.60;5.40;;;12.90;99.90;;;;;;5020942;28;20057;-90
2023/01/18 10:56:25;;;;;;;;;;;;;;;;;;;;;
2023/01/18 10:59:17;;;;;;;7.88;4.40;;;13.20;99.90;;;;;;5031687;28;20451;-89
2023/01/18 11:02:06;;;;;;;8.77;5.90;;;13.40;99.90;;;;;;5004638;28;20032;-91
2023/01/18 11:04:53;;;;;;;9.23;6.57;;;13.30;99.90;;;;;;4996040;28;20053;-91
2023/01/18 11:07:24;;;;;;;9.68;5.85;;;13.20;99.90;;;;;;5011701;28;20056;-92
2023/01/18 11:10:03;;;;;;;6.82;5.00;;;13.50;99.90;;;;;;5024995;28;20030;-91
2023/01/18 11:12:50;;;;;;;9.63;6.18;;;13.70;99.90;;;;;;5024328;28;20124;-88
2023/01/18 11:15:28;;;;;;;11.13;6.25;;;13.80;99.90;;;;;;4993489;28;20034;-92
2023/01/18 11:18:11;;;;;;;9.93;6.68;;;13.60;99.90;;;;;;5013387;28;20041;-90
2023/01/18 11:20:46;;;;;;;;;;;13.40;99.90;;;;;;5027763;28;20519;-90
2023/01/18 11:23:20;;;;;;;7.88;5.82;;;13.20;99.90;;;;;;5030354;28;19927;-89
2023/01/18 11:26:05;;;;;;;8.27;5.93;;;13.30;99.90;;;;;;5033403;28;20030;-88
2023/01/18 11:28:55;;;;;;;10.00;6.25;;;13.50;99.90;;;;;;5030026;28;20029;-89
2023/01/18 11:31:24;;;;;;;9.57;5.72;;;13.70;99.90;;;;;;5029849;28;20049;-90
2023/01/18 11:34:13;;;;;;;;;;;;;;;;;;;;;
2023/01/18 11:36:45;;;;;;;9.05;5.45;;;14.00;99.90;;;;;;5028414;28;20032;-91
2023/01/18 11:39:26;;;;;;;7.95;5.43;;;14.10;99.90;;;;;;5013396;28;20041;-89
2023/01/18 11:42:12;;;;;;;7.40;5.07;;;14.30;99.90;;;;;;5007908;28;20136;-90
2023/01/18 11:44:50;;;;;;;8.27;5.47;;;14.60;99.90;;;;;;5022444;28;20033;-90
2023/01/18 11:47:44;;;;;;;8.43;5.25;;;14.50;99.90;;;;;;5026946;28;20042;-92
2023/01/18 11:50:38;;;;;;;8.43;5.28;;;14.50;99.90;;;;;;5008601;28;20508;-91
2023/01/18 11:53:23;;;;;;;7.40;4.93;;;14.50;99.90;;;;;;5015234;28;20033;-91
2023/01/18 11:56:22;;;;;;;9.27;5.40;;;14.60;99.90;;;;;;5027886;28;20041;-88
2023/01/18 11:59:29;;;;;;;;;;;;;;;;;;;;;
2023/01/18 12:02:37;;;;;;;8.10;4.65;;;15.00;99.90;;;;;;4972977;28;20041;-90
2023/01/18 12:05:28;;;;;;;5.90;4.07;;;15.10;99.90;;;;;;5010816;28;20033;-91
2023/01/18 12:08:37;;;;;;;6.68;4.50;;;15.20;99.90;;;;;;5021887;28;20064;-89
2023/01/18 12:11:08;;;;;;;7.35;4.55;;;15.20;99.90;;;;;;5031871;28;20021;-89
2023/01/18 12:13:42;;;;;;;6.88;4.65;;;14.50;99.90;;;;;;5020366;28;20026;-91
2023/01/18 12:16:40;;;;;;;6.33;4.87;;;12.80;99.90;;;;;;5038134;28;20045;-90
2023/01/18 12:20:19;;;;;;;;;;;;;;;;;;;;;
2023/01/18 12:26:08;;;;;;;9.10;5.90;;;8.00;99.90;;;;;;5022888;28;20073;-92
2023/01/18 12:29:14;;;;;;;8.00;4.93;;;7.20;99.90;;;;;;5022581;28;20037;-91
2023/01/18 12:32:25;;;;;;;10.43;5.65;;;6.70;99.90;;;;;;5023840;28;20441;-90
2023/01/18 12:35:32;;;;;;;12.80;6.00;;;6.40;99.90;;;;;;5020426;28;20041;-90
2023/01/18 12:38:03;;;;;;;7.88;4.95;;;6.00;99.90;;;;;;4983507;28;20210;-94
2023/01/18 12:41:07;;;;;;;8.77;5.10;;;5.90;99.90;;;;;;4973021;28;20046;-91
2023/01/18 12:44:02;;;;;;;9.98;5.72;;;5.80;99.90;;;;;;5027136;28;20103;-92
2023/01/18 12:46:39;;;;;;;9.02;6.15;;;5.60;99.90;;;;;;5021680;28;20381;-91
2023/01/18 12:49:17;;;;;;;8.40;4.75;;;5.50;99.90;;;;;;5023808;28;20067;-93
2023/01/18 12:51:52;;;;;;;9.30;6.05;;;5.40;99.90;;;;;;5021481;28;20045;-92
2023/01/18 12:54:29;;;;;;;9.95;5.93;;;5.40;99.90;;;;;;5031235;28;20041;-93
2023/01/18 12:57:02;;;;;;;12.18;5.95;;;5.30;99.90;;;;;;5016530;28;20041;-91
2023/01/18 12:59:52;;;;;;;8.57;5.25;;;5.30;99.90;;;;;;5033760;28;20105;-90
2023/01/18 13:02:40;;;;;;;9.85;5.93;;;5.20;99.90;;;;;;5054212;28;20040;-90
2023/01/18 13:05:32;;;;;;;10.35;6.43;;;5.20;99.90;;;;;;5048880;28;20049;-90
2023/01/18 13:08:05;;;;;;;8.70;5.75;;;5.10;99.90;;;;;;5017274;28;20496;-90
2023/01/18 13:10:41;;;;;;;8.65;5.78;;;5.10;99.90;;;;;;5039959;28;20045;-93
2023/01/18 13:13:16;;;;;;;12.32;6.03;;;5.10;99.90;;;;;;5016387;28;20065;-91
2023/01/18 13:16:08;;;;;;;9.60;5.93;;;5.10;99.90;;;;;;5024445;28;20423;-90
2023/01/18 13:19:02;;;;;;;12.93;6.28;;;5.00;99.90;;;;;;5015563;28;20052;-91
2023/01/18 13:21:30;;;;;;;;;;;5.00;99.90;;;;;;5033345;28;20121;-90
2023/01/18 13:24:25;;;;;;;9.15;5.80;;;5.10;99.90;;;;;;5027439;28;19962;-92
2023/01/18 13:27:15;;;;;;;9.55;6.15;;;5.70;99.90;;;;;;5035951;28;20043;-90
2023/01/18 13:29:42;;;;;;;7.85;5.82;;;7.10;99.90;;;;;;5030631;28;20095;-91
2023/01/18 13:32:25;;;;;;;9.40;5.95;;;8.30;99.90;;;;;;5028188;28;20218;-91
2023/01/18 13:35:27;;;;;;;7.32;4.90;;;9.20;99.90;;;;;;5037802;28;20084;-91
2023/01/18 13:38:12;;;;;;;6.57;4.50;;;10.00;99.90;;;;;;5031043;28;20029;-91
2023/01/18 13:40:41;;;;;;;7.07;4.90;;;10.50;99.90;;;;;;5034324;28;20041;-91
2023/01/18 13:43:34;;;;;;;7.45;4.35;;;11.00;99.90;;;;;;5022954;28;20045;-92
2023/01/18 13:46:19;;;;;;;;;;;;;;;;;;;;;
2023/01/18 13:49:31;;;;;;;8.82;4.95;;;11.20;99.90;;;;;;5031979;28;20280;-90
2023/01/18 13:51:59;;;;;;;7.50;4.50;;;11.30;99.90;;;;;;5019513;28;20045;-93
2023/01/18 13:54:27;;;;;;;5.60;3.85;;;10.20;99.90;;;;;;5028141;28;20107;-90
2023/01/18 13:57:08;;;;;;;6.05;3.65;;;9.10;99.90;;;;;;5008209;28;20123;-91
2023/01/18 14:02:42;;;;;;;8.60;3.88;;;7.30;99.90;;;;;;5033433;28;20186;-92
2023/01/18 14:05:39;;;;;;;6.05;3.92;;;6.70;99.90;;;;;;5010719;28;20092;-91
2023/01/18 14:08:19;;;;;;;5.95;3.63;;;6.20;99.90;;;;;;5016593;28;20037;-92
2023/01/18 14:11:11;;;;;;;6.88;3.60;;;6.00;99.90;;;;;;5025697;28;20030;-92
2023/01/18 14:13:43;;;;;;;5.85;3.50;;;5.90;99.90;;;;;;5027084;28;20053;-92
2023/01/18 14:16:45;;;;;;;8.73;3.70;;;5.80;99.90;;;;;;5012698;28;20038;-91
2023/01/18 14:19:48;;;;;;;8.20;4.57;;;5.70;99.90;;;;;;5032087;28;20034;-91
2023/01/18 14:23:02;;;;;;;6.90;3.92;;;5.60;99.90;;;;;;5025967;28;20034;-88
2023/01/18 14:25:52;;;;;;;6.90;3.72;;;5.60;99.90;;;;;;5015107;28;20040;-90
2023/01/18 14:28:36;;;;;;;5.05;3.22;;;5.70;99.90;;;;;;5029649;28;20529;-90
2023/01/18 14:31:35;;;;;;;5.60;3.08;;;5.70;99.90;;;;;;5028173;28;20036;-90
2023/01/18 14:35:16;;;;;;;;;;;;;;;;;;;;;
2023/01/18 14:37:42;;;;;;;5.45;3.30;;;5.60;99.90;;;;;;4954133;28;20049;-90
2023/01/18 14:40:25;;;;;;;6.20;3.03;;;5.50;99.90;;;;;;5013062;28;20124;-91
2023/01/18 14:43:10;;;;;;;4.77;3.20;;;5.50;99.90;;;;;;5027670;28;20045;-92
2023/01/18 14:45:46;;;;;;;8.20;3.03;;;5.40;99.90;;;;;;5012719;28;20037;-91
2023/01/18 14:48:18;;;;;;;6.10;3.22;;;5.30;99.90;;;;;;5012233;28;20037;-91
2023/01/18 14:50:57;;;;;;;5.28;2.60;;;5.20;99.90;;;;;;5026293;28;20128;-90
2023/01/18 14:53:32;;;;;;;7.00;3.50;;;5.20;99.90;;;;;;5011357;28;20041;-91
2023/01/18 14:56:21;;;;;;;7.93;3.67;;;5.10;99.90;;;;;;5009041;28;20133;-91
2023/01/18 14:58:56;;;;;;;7.63;3.53;;;5.00;99.90;;;;;;5015395;28;20045;-89
2023/01/18 15:01:40;;;;;;;6.05;3.33;;;5.00;99.90;;;;;;5014146;28;20121;-90
2023/01/18 15:04:24;;;;;;;5.70;3.38;;;4.90;99.90;;;;;;5023135;28;20025;-89
2023/01/18 15:06:58;;;;;;;5.43;3.30;;;4.80;99.90;;;;;;5009327;28;20045;-90
2023/01/18 15:09:31;;;;;;;5.40;3.20;;;4.70;99.90;;;;;;5025443;28;20346;-92
2023/01/18 15:12:25;;;;;;;4.70;3.08;;;4.70;99.90;;;;;;5023523;28;20342;-90
2023/01/18 15:15:25;;;;;;;5.97;3.60;;;4.70;99.90;;;;;;5010869;28;20045;-90
2023/01/18 15:18:06;;;;;;;7.05;3.70;;;4.60;99.90;;;;;;5020855;28;20041;-92
2023/01/18 15:23:33;;;;;;;7.05;3.78;;;4.50;99.90;;;;;;5022092;28;20474;-88
2023/01/18 15:26:06;;;;;;;7.22;4.03;;;4.50;99.90;;;;;;5006809;28;20037;-91
2023/01/18 15:28:39;;;;;;;7.63;4.53;;;4.50;99.90;;;;;;5024849;28;20034;-90
2023/01/18 15:31:15;;;;;;;6.63;3.47;;;4.50;99.90;;;;;;5019992;28;20084;-89
2023/01/18 15:33:51;;;;;;;7.82;4.60;;;4.40;99.90;;;;;;5007851;28;20052;-89
2023/01/18 15:36:23;;;;;;;7.22;3.92;;;4.40;99.90;;;;;;5025575;28;20041;-89
2023/01/18 15:38:53;;;;;;;7.07;3.85;;;4.40;99.90;;;;;;5009442;28;20048;-91
2023/01/18 15:41:20;;;;;;;7.45;3.97;;;4.30;99.90;;;;;;5018046;28;20116;-91
2023/01/18 15:43:55;;;;;;;6.80;3.90;;;4.40;99.90;;;;;;5018876;28;20400;-90
2023/01/18 15:46:24;;;;;;;6.90;4.53;;;4.30;99.90;;;;;;5022490;28;20030;-91
2023/01/18 15:49:01;;;;;;;6.43;3.72;;;4.30;99.90;;;;;;5025148;28;20520;-91
2023/01/18 15:54:30;;;;;;;8.55;3.55;;;4.20;99.90;;;;;;5026028;28;20052;-89
2023/01/18 15:57:11;;;;;;;;;;;4.20;99.90;;;;;;5028391;28;20044;-90
2023/01/18 15:59:43;;;;;;;6.32;3.38;;;4.10;99.90;;;;;;5007572;28;19913;-90
2023/01/18 16:02:17;;;;;;;7.40;3.67;;;4.00;99.90;;;;;;4996912;28;20093;-89
2023/01/18 16:04:44;;;;;;;7.75;3.78;;;3.90;99.90;;;;;;5006466;28;20037;-90
2023/01/18 16:07:34;;;;;;;7.97;4.13;;;3.80;99.90;;;;;;5030438;28;20064;-91
2023/01/18 16:10:29;;;;;;;11.68;3.72;;;3.70;99.90;;;;;;5021795;28;20397;-89
2023/01/18 16:13:41;;;;;;;6.20;3.80;;;3.70;99.90;;;;;;5010634;28;20490;-90
2023/01/18 16:16:15;;;;;;;6.32;3.53;;;3.60;99.90;;;;;;5009223;28;20488;-90
2023/01/18 16:18:50;;;;;;;9.02;3.88;;;3.60;99.90;;;;;;5027018;28;20038;-89
2023/01/18 16:21:31;;;;;;;6.25;3.80;;;3.50;99.90;;;;;;5015006;28;20128;-89
2023/01/18 16:24:00;;;;;;;6.82;3.92;;;3.50;99.90;;;;;;5022082;28;20069;-90
2023/01/18 16:26:29;;;;;;;8.88;4.22;;;3.50;99.90;;;;;;5014915;28;20034;-89
2023/01/18 16:29:06;;;;;;;11.23;4.40;;;3.40;99.90;;;;;;5018093;28;20053;-91
2023/01/18 16:31:49;;;;;;;7.22;4.18;;;3.50;99.90;;;;;;5021447;28;20089;-90
2023/01/18 16:34:26;;;;;;;8.05;3.88;;;3.40;99.90;;;;;;5034773;28;20419;-89
2023/01/18 16:36:59;;;;;;;7.00;4.55;;;3.40;99.90;;;;;;5033414;28;20034;-89
2023/01/18 16:40:02;;;;;;;9.23;4.22;;;3.30;99.90;;;;;;5033242;28;20514;-90
2023/01/18 16:42:36;;;;;;;6.75;4.63;;;3.30;99.90;;;;;;4958420;28;20043;-89
2023/01/18 16:45:19;;;;;;;6.47;3.70;;;3.20;99.90;;;;;;4954886;29;20130;-91
2023/01/18 16:48:07;;;;;;;;;;;;;;;;;;;;;
2023/01/18 16:50:41;;;;;;;7.80;4.00;;;3.20;99.90;;;;;;4968431;28;20199;-92
2023/01/18 16:53:12;;;;;;;7.78;4.30;;;3.20;99.90;;;;;;4990604;28;20049;-89
2023/01/18 16:55:43;;;;;;;7.97;4.70;;;3.20;99.90;;;;;;4979816;28;20035;-90
2023/01/18 16:58:38;;;;;;;8.23;4.35;;;3.20;99.90;;;;;;4998077;28;20053;-90
2023/01/18 17:01:14;;;;;;;9.65;5.00;;;3.20;99.90;;;;;;5032171;28;20124;-90
2023/01/18 17:03:46;;;;;;;8.13;5.10;;;3.20;99.90;;;;;;5024530;28;20030;-90
2023/01/18 17:06:25;;;;;;;8.65;4.93;;;3.20;99.90;;;;;;5017007;28;20489;-89
2023/01/18 17:09:05;;;;;;;7.65;4.53;;;3.30;99.90;;;;;;5050637;28;20068;-89
2023/01/18 17:11:35;;;;;;;8.88;5.10;;;3.30;99.90;;;;;;5029805;28;20417;-89
2023/01/18 17:14:01;;;;;;;9.07;5.05;;;3.30;99.90;;;;;;4983328;28;20046;-89
2023/01/18 17:16:41;;;;;;;7.00;4.68;;;3.40;99.90;;;;;;4993027;28;20040;-89
2023/01/18 17:19:24;;;;;;;6.72;4.38;;;3.40;99.90;;;;;;5015873;28;20034;-89
2023/01/18 17:35:04;;;;;;;8.40;5.00;;;3.50;99.90;;;;;;5035053;28;20171;-90
2023/01/18 17:37:58;;;;;;;9.95;6.00;;;3.50;99.90;;;;;;5018064;28;20068;-91
2023/01/18 17:40:31;;;;;;;9.48;6.00;;;3.50;99.90;;;;;;5008616;28;20034;-89
2023/01/18 17:43:13;;;;;;;;;;;;;;;;;;;;;
2023/01/18 17:45:46;;;;;;;10.63;6.07;;;3.40;99.90;;;;;;5035286;28;20029;-89
2023/01/18 17:48:17;;;;;;;10.48;5.82;;;3.50;99.90;;;;;;5016710;28;20373;-89
2023/01/18 17:50:48;;;;;;;11.05;5.78;;;3.40;99.90;;;;;;5033036;28;20080;-89
2023/01/18 17:53:45;;;;;;;10.00;5.80;;;3.40;99.90;;;;;;5017207;28;20038;-91
2023/01/18 17:56:18;;;;;;;10.73;6.28;;;3.40;99.90;;;;;;5008302;28;20263;-90
2023/01/18 17:59:07;;;;;;;8.38;5.78;;;3.40;99.90;;;;;;5033388;28;20124;-89
2023/01/18 18:01:44;;;;;;;12.95;5.95;;;3.40;99.90;;;;;;5009666;28;20371;-91
2023/01/18 18:04:16;;;;;;;9.00;5.68;;;3.40;99.90;;;;;;5016802;28;20035;-89
2023/01/18 18:06:49;;;;;;;11.68;5.90;;;3.40;99.90;;;;;;5034718;28;20037;-90
2023/01/18 18:09:18;;;;;;;10.18;6.70;;;3.40;99.90;;;;;;5016363;28;20082;-89
2023/01/18 18:11:53;;;;;;;9.93;6.18;;;3.40;99.90;;;;;;5016924;28;20029;-89
2023/01/18 18:14:26;;;;;;;10.88;6.80;;;3.50;99.90;;;;;;5034818;28;20034;-90
2023/01/18 18:17:30;;;;;;;9.55;6.13;;;3.40;99.90;;;;;;5016826;28;20034;-90
2023/01/18 18:21:15;;;;;;;;;;;;;;;;;;;;;
2023/01/18 18:23:43;;;;;;;11.10;6.30;;;3.40;99.90;;;;;;4974214;28;20038;-90
2023/01/18 18:26:16;;;;;;;12.00;7.32;;;3.40;99.90;;;;;;5018179;28;20080;-89
2023/01/18 18:28:58;;;;;;;13.82;6.68;;;3.40;99.90;;;;;;5009542;28;20036;-90
2023/01/18 18:31:35;;;;;;;11.13;6.75;;;3.50;99.90;;;;;;5009789;28;20486;-89
2023/01/18 19:45:57;;;;;;;12.25;7.78;;;2.90;99.90;;;;;;5013649;28;20575;-89
2023/01/18 19:48:59;;;;;;;13.15;7.72;;;2.80;99.90;;;;;;5013065;28;20038;-89
2023/01/18 19:51:49;;;;;;;13.90;7.32;;;2.80;99.90;;;;;;4996272;28;20145;-89
2023/01/18 19:54:22;;;;;;;12.80;8.00;;;2.80;99.90;;;;;;5010368;28;20088;-88
2023/01/18 19:57:18;;;;;;;14.88;8.60;;;2.70;99.90;;;;;;4997024;28;20026;-89
2023/01/18 20:00:35;;;;;;;13.38;8.23;;;2.70;99.90;;;;;;5013865;28;20037;-89
2023/01/18 20:06:24;;;;;;;15.23;7.88;;;2.70;99.90;;;;;;5012666;28;20052;-90
2023/01/18 20:15:30;;;;;;;12.00;7.07;;;2.60;99.90;;;;;;4957729;29;20030;-89
2023/01/18 20:18:03;;;;;;;11.52;7.40;;;2.60;99.90;;;;;;4941910;29;20130;-89
2023/01/18 20:21:05;;;;;;;14.45;8.27;;;2.60;99.90;;;;;;4940973;29;20054;-89
2023/01/18 20:27:15;;;;;;;13.57;7.72;;;2.50;99.90;;;;;;4957502;29;20079;-89
2023/01/18 20:29:54;;;;;;;11.77;7.55;;;2.50;99.90;;;;;;4928073;29;20035;-90
2023/01/18 20:32:23;;;;;;;13.18;8.50;;;2.50;99.90;;;;;;4940757;29;20415;-90
2023/01/18 20:34:59;;;;;;;12.23;8.32;;;2.50;99.90;;;;;;4954986;29;20368;-90
2023/01/18 20:38:05;;;;;;;13.52;9.15;;;2.50;99.90;;;;;;4999799;28;20084;-90
2023/01/18 20:40:33;;;;;;;14.82;8.90;;;2.60;99.90;;;;;;5016377;28;20064;-89
2023/01/18 20:43:28;;;;;;;12.30;7.90;;;2.60;99.90;;;;;;5016622;28;20100;-90
2023/01/18 20:53:03;;;;;;;13.55;8.13;;;2.50;99.90;;;;;;4956716;29;20102;-89
2023/01/18 20:55:35;;;;;;;15.95;8.32;;;2.50;99.90;;;;;;4950682;29;20366;-88
2023/01/18 21:04:19;;;;;;;16.08;9.02;;;2.50;99.90;;;;;;4917627;29;20028;-88
2023/01/18 21:07:08;;;;;;;13.60;9.35;;;2.50;99.90;;;;;;4918397;29;20136;-88
2023/01/18 21:10:08;;;;;;;15.52;8.35;;;2.50;99.90;;;;;;4918247;29;20067;-88
2023/01/18 21:12:40;;;;;;;13.20;8.32;;;2.50;99.90;;;;;;4925590;29;20110;-90
2023/01/18 21:15:37;;;;;;;16.23;8.88;;;2.50;99.90;;;;;;4939038;28;20039;-88
2023/01/18 21:18:15;;;;;;;14.13;9.27;;;2.50;99.90;;;;;;4952493;29;20419;-88
2023/01/18 21:24:44;;;;;;;13.48;9.05;;;2.40;99.90;;;;;;4956564;29;20403;-88
2023/01/18 21:27:12;;;;;;;16.40;9.73;;;2.30;99.90;;;;;;5012583;28;20486;-88
2023/01/18 21:29:51;;;;;;;11.93;9.00;;;2.30;99.90;;;;;;5016389;28;20092;-88
2023/01/18 21:32:51;;;;;;;14.65;9.65;;;2.20;99.90;;;;;;5026765;28;20054;-89
2023/01/18 22:48:39;;;;;;;19.25;10.52;;;2.70;99.90;;;;;;5021328;28;20080;-89
2023/01/18 22:51:06;;;;;;;17.00;12.32;;;2.60;99.90;;;;;;5013837;28;20053;-90
2023/01/18 22:53:43;;;;;;;15.32;10.90;;;2.50;99.90;;;;;;5033078;28;20049;-90
2023/01/18 22:56:17;;;;;;;16.60;12.50;;;2.50;99.90;;;;;;5016857;28;20048;-89
2023/01/18 22:58:45;;;;;;;17.92;12.57;;;2.40;99.90;;;;;;4999861;28;20045;-89